Time;durP1;ratioP1;P1;durP2;ratioP2;P2;SDS_P1;SDS_P2;PMS_P1;PMS_P2;Temp;Humidity;BMP_temperature;BMP_pressure;BME280_temperature;BME280_humidity;BME280_pressure;Samples;Min_cycle;Max_cycle;Signal;HPM_P1;HPM_P2
2020/12/22 00:00:27;;;;;;;7.45;4.47;;;10.80;99.90;;;;;;10366836;28;20081;-66
2020/12/22 00:05:29;;;;;;;11.93;7.13;;;10.80;99.90;;;;;;10368635;28;20479;-66
2020/12/22 00:10:30;;;;;;;11.38;7.80;;;10.80;99.90;;;;;;10366820;28;20491;-67
2020/12/22 00:15:31;;;;;;;1.98;1.35;;;10.60;99.90;;;;;;10352288;28;20505;-67
2020/12/22 00:20:41;;;;;;;6.25;2.63;;;10.60;99.90;;;;;;10345018;28;20065;-67
2020/12/22 00:25:48;;;;;;;2.83;1.67;;;10.90;99.90;;;;;;10365942;28;20049;-66
2020/12/22 00:30:50;;;;;;;2.97;1.70;;;11.10;99.90;;;;;;10366194;28;20741;-67
2020/12/22 00:35:52;;;;;;;3.95;1.60;;;11.20;99.90;;;;;;10355554;28;20069;-67
2020/12/22 00:40:54;;;;;;;1.55;1.20;;;11.30;99.90;;;;;;10365964;28;20096;-66
2020/12/22 00:45:55;;;;;;;3.30;1.50;;;11.40;99.90;;;;;;10364418;28;20046;-67
2020/12/22 00:51:02;;;;;;;2.70;1.40;;;11.50;99.90;;;;;;10370381;28;20383;-67
2020/12/22 00:56:04;;;;;;;4.05;1.90;;;11.60;99.90;;;;;;10340008;28;20419;-67
2020/12/22 01:01:06;;;;;;;4.68;1.40;;;11.60;99.90;;;;;;10340522;28;20129;-67
2020/12/22 01:06:07;;;;;;;1.33;1.00;;;11.60;99.90;;;;;;10372969;28;20141;-67
2020/12/22 01:11:09;;;;;;;2.35;1.20;;;11.70;99.90;;;;;;10350556;28;20392;-66
2020/12/22 01:16:11;;;;;;;1.83;1.05;;;11.80;99.90;;;;;;10372163;28;20457;-67
2020/12/22 01:21:20;;;;;;;2.30;1.38;;;11.90;99.90;;;;;;10372583;28;20052;-67
2020/12/22 01:26:22;;;;;;;3.45;1.40;;;11.90;99.90;;;;;;10361730;28;20100;-67
2020/12/22 01:31:29;;;;;;;4.25;1.60;;;12.00;99.90;;;;;;10343376;28;20089;-66
2020/12/22 01:36:31;;;;;;;5.28;3.25;;;12.00;99.90;;;;;;10372177;28;20449;-67
2020/12/22 01:41:34;;;;;;;5.40;2.80;;;12.10;99.90;;;;;;10371311;28;20088;-67
2020/12/22 01:46:41;;;;;;;8.48;5.07;;;12.10;99.90;;;;;;10360083;28;20108;-66
2020/12/22 01:51:44;;;;;;;3.92;2.25;;;12.20;99.90;;;;;;10343227;28;20085;-67
2020/12/22 01:56:46;;;;;;;2.60;1.80;;;12.20;99.90;;;;;;10360232;28;20491;-66
2020/12/22 02:01:49;;;;;;;5.97;2.85;;;12.30;99.90;;;;;;10329240;28;20125;-67
2020/12/22 02:06:51;;;;;;;12.20;5.15;;;12.30;99.90;;;;;;10332891;28;20105;-66
2020/12/22 02:11:53;;;;;;;10.45;5.30;;;12.30;99.90;;;;;;10363550;28;20046;-67
2020/12/22 02:16:55;;;;;;;5.75;2.60;;;12.40;99.90;;;;;;10369837;28;20512;-67
2020/12/22 02:21:59;;;;;;;5.93;2.97;;;12.40;99.90;;;;;;10340182;28;20155;-66
2020/12/22 02:27:02;;;;;;;8.50;3.65;;;12.40;99.90;;;;;;10370286;28;20100;-67
2020/12/22 02:32:04;;;;;;;7.45;3.63;;;12.50;99.90;;;;;;10345273;28;20136;-67
2020/12/22 02:37:06;;;;;;;4.68;2.30;;;12.50;99.90;;;;;;10331009;28;20466;-66
2020/12/22 02:42:07;;;;;;;7.18;3.15;;;12.50;99.90;;;;;;10360046;28;20085;-67
2020/12/22 02:47:14;;;;;;;7.57;3.05;;;12.70;99.90;;;;;;10369149;28;20054;-66
2020/12/22 02:52:15;;;;;;;9.82;4.20;;;12.80;99.90;;;;;;10369763;28;20046;-66
2020/12/22 02:57:17;;;;;;;7.13;2.90;;;12.80;99.90;;;;;;10329391;28;20109;-67
2020/12/22 03:02:19;;;;;;;4.63;2.30;;;12.90;99.90;;;;;;10329327;28;20572;-66
2020/12/22 03:07:20;;;;;;;8.00;3.30;;;12.90;99.90;;;;;;10367017;28;20054;-67
2020/12/22 03:12:21;;;;;;;4.45;2.05;;;13.00;99.90;;;;;;10368921;28;20129;-67
2020/12/22 03:17:23;;;;;;;7.07;3.00;;;13.00;99.90;;;;;;10367374;28;20104;-67
2020/12/22 03:22:34;;;;;;;5.53;2.15;;;13.10;99.90;;;;;;10353483;28;20046;-67
2020/12/22 03:27:39;;;;;;;3.67;1.65;;;13.20;99.90;;;;;;10329612;28;20060;-67
2020/12/22 03:32:41;;;;;;;6.82;2.38;;;13.20;99.90;;;;;;10329131;28;20058;-66
2020/12/22 03:37:43;;;;;;;3.08;1.40;;;13.30;99.90;;;;;;10346872;28;20054;-67
2020/12/22 03:42:44;;;;;;;3.92;1.70;;;13.30;99.90;;;;;;10352533;28;20056;-67
2020/12/22 03:47:46;;;;;;;4.38;1.95;;;13.40;99.90;;;;;;10328691;28;20463;-67
2020/12/22 03:53:01;;;;;;;3.13;1.38;;;13.40;99.90;;;;;;10346378;28;20046;-67
2020/12/22 03:58:02;;;;;;;2.40;1.13;;;13.40;99.90;;;;;;10330424;28;20518;-67
2020/12/22 04:03:04;;;;;;;2.83;0.90;;;13.40;99.90;;;;;;10378831;28;20101;-66
2020/12/22 04:08:06;;;;;;;3.28;1.20;;;13.40;99.90;;;;;;10357462;28;20142;-66
2020/12/22 04:13:07;;;;;;;3.90;1.83;;;13.50;99.90;;;;;;10329740;28;20078;-66
2020/12/22 04:18:08;;;;;;;1.65;1.00;;;13.60;99.90;;;;;;10328526;28;20050;-66
2020/12/22 04:23:14;;;;;;;1.55;0.80;;;13.60;99.90;;;;;;10346864;28;20107;-67
2020/12/22 04:28:16;;;;;;;2.22;1.20;;;13.70;99.90;;;;;;10375954;28;20085;-67
2020/12/22 04:33:17;;;;;;;3.58;1.50;;;13.70;99.90;;;;;;10359832;28;20083;-67
2020/12/22 04:38:19;;;;;;;7.13;1.73;;;13.70;99.90;;;;;;10337751;28;20057;-66
2020/12/22 04:43:22;;;;;;;3.20;1.20;;;13.70;99.90;;;;;;10360988;28;20042;-67
2020/12/22 04:48:26;;;;;;;1.83;1.00;;;13.80;99.90;;;;;;10337632;28;20046;-67
2020/12/22 04:53:35;;;;;;;;;;;13.90;99.90;;;;;;10337465;28;20080;-67
2020/12/22 04:58:37;;;;;;;3.58;1.50;;;13.90;99.90;;;;;;10335664;28;19922;-67
2020/12/22 05:03:38;;;;;;;4.18;1.52;;;13.90;99.90;;;;;;10336219;28;20058;-67
2020/12/22 05:08:40;;;;;;;2.58;1.13;;;14.00;99.90;;;;;;10351319;28;20050;-67
2020/12/22 05:13:42;;;;;;;3.80;1.30;;;14.00;99.90;;;;;;10373305;28;20081;-67
2020/12/22 05:18:44;;;;;;;1.45;0.90;;;14.00;99.90;;;;;;10345427;28;20198;-67
2020/12/22 05:23:54;;;;;;;2.33;1.20;;;14.10;99.90;;;;;;10362557;28;20117;-67
2020/12/22 05:29:06;;;;;;;0.52;0.52;;;14.10;99.90;;;;;;10372189;28;20062;-67
2020/12/22 05:34:10;;;;;;;1.02;0.60;;;14.10;99.90;;;;;;10343510;28;20046;-67
2020/12/22 05:39:14;;;;;;;0.50;0.50;;;14.10;99.90;;;;;;10363344;28;20104;-67
2020/12/22 05:44:15;;;;;;;0.77;0.40;;;14.20;99.90;;;;;;10342196;28;20043;-67
2020/12/22 05:49:17;;;;;;;0.73;0.68;;;14.10;99.90;;;;;;10350345;28;20086;-67
2020/12/22 05:54:19;;;;;;;2.30;1.10;;;14.10;99.90;;;;;;10370274;28;20546;-66
2020/12/22 05:59:21;;;;;;;31.38;19.60;;;14.10;99.90;;;;;;10367828;28;20054;-67
2020/12/22 06:04:23;;;;;;;1.00;0.80;;;14.20;99.90;;;;;;10352894;28;20100;-67
2020/12/22 06:09:25;;;;;;;0.40;0.40;;;14.20;99.90;;;;;;10368155;28;20101;-67
2020/12/22 06:14:32;;;;;;;0.63;0.63;;;14.30;99.90;;;;;;10333824;28;20140;-67
2020/12/22 06:19:36;;;;;;;0.80;0.40;;;14.30;99.90;;;;;;10371268;28;20058;-67
2020/12/22 06:24:38;;;;;;;0.50;0.50;;;14.30;99.90;;;;;;10358029;28;20125;-67
2020/12/22 06:29:45;;;;;;;2.58;0.43;;;14.30;99.90;;;;;;10370632;28;20089;-67
2020/12/22 06:34:51;;;;;;;0.22;0.22;;;14.40;99.90;;;;;;10370800;28;20046;-66
2020/12/22 06:39:52;;;;;;;0.20;0.20;;;14.30;99.90;;;;;;10370241;28;20092;-67
2020/12/22 06:44:54;;;;;;;0.60;0.60;;;14.40;99.90;;;;;;10369463;28;20132;-66
2020/12/22 06:49:56;;;;;;;0.40;0.40;;;14.50;99.90;;;;;;10367631;28;20085;-67
2020/12/22 06:54:58;;;;;;;2.53;0.60;;;14.40;99.90;;;;;;10348033;28;20081;-66
2020/12/22 07:00:01;;;;;;;0.90;0.70;;;14.50;99.90;;;;;;10329347;28;20133;-67
2020/12/22 07:05:05;;;;;;;0.55;0.55;;;14.50;99.90;;;;;;10328982;28;20054;-67
2020/12/22 07:10:06;;;;;;;0.30;0.30;;;14.50;99.90;;;;;;10368747;28;20133;-67
2020/12/22 07:15:08;;;;;;;0.52;0.52;;;14.50;99.90;;;;;;10383581;28;20038;-67
2020/12/22 07:20:10;;;;;;;0.50;0.50;;;14.50;99.90;;;;;;10369128;28;20137;-67
2020/12/22 07:25:15;;;;;;;5.70;4.07;;;14.50;99.90;;;;;;10364380;28;20046;-67
2020/12/22 07:30:18;;;;;;;2.20;1.45;;;14.40;99.90;;;;;;10367076;28;20053;-67
2020/12/22 07:35:19;;;;;;;4.22;2.63;;;14.40;99.90;;;;;;10350571;28;20132;-71
2020/12/22 07:40:27;;;;;;;3.78;2.72;;;14.40;99.90;;;;;;10364120;28;20050;-70
2020/12/22 07:45:29;;;;;;;1.30;1.20;;;14.30;99.90;;;;;;10350116;28;20085;-70
2020/12/22 07:50:30;;;;;;;1.33;1.13;;;14.40;99.90;;;;;;10365086;28;20585;-70
2020/12/22 07:55:41;;;;;;;0.85;0.85;;;14.40;99.90;;;;;;10368083;28;20125;-70
2020/12/22 08:00:42;;;;;;;1.95;1.00;;;14.50;99.90;;;;;;10370548;28;20128;-70
2020/12/22 08:05:58;;;;;;;0.82;0.80;;;14.50;99.90;;;;;;10372892;28;20049;-71
2020/12/22 08:10:59;;;;;;;0.50;0.47;;;14.60;99.90;;;;;;10358598;28;20053;-71
2020/12/22 08:16:02;;;;;;;0.60;0.47;;;14.60;99.90;;;;;;10375954;28;20050;-70
2020/12/22 08:21:04;;;;;;;2.13;0.50;;;14.70;99.90;;;;;;10376328;28;20069;-71
2020/12/22 08:26:06;;;;;;;0.35;0.35;;;14.70;99.90;;;;;;10376492;28;20145;-70
2020/12/22 08:31:14;;;;;;;0.47;0.40;;;14.80;99.90;;;;;;10376168;28;20050;-71
2020/12/22 08:36:17;;;;;;;0.55;0.55;;;14.80;99.90;;;;;;10374646;28;20100;-70
2020/12/22 08:41:21;;;;;;;1.13;0.70;;;14.90;99.90;;;;;;10375863;28;20077;-70
2020/12/22 08:46:23;;;;;;;0.50;0.50;;;14.90;99.90;;;;;;10373888;28;20073;-71
2020/12/22 08:51:26;;;;;;;1.35;0.70;;;14.80;99.90;;;;;;10375076;28;20536;-71
2020/12/22 08:56:27;;;;;;;2.10;0.82;;;14.80;99.90;;;;;;10376210;28;20491;-70
2020/12/22 09:01:38;;;;;;;0.60;0.60;;;14.90;99.90;;;;;;10375047;28;20124;-71
2020/12/22 09:06:44;;;;;;;1.52;0.60;;;14.90;99.90;;;;;;10373024;28;20054;-70
2020/12/22 09:11:46;;;;;;;0.55;0.55;;;15.00;99.90;;;;;;10371404;28;20131;-70
2020/12/22 09:16:50;;;;;;;0.50;0.50;;;15.00;99.90;;;;;;10374607;28;20072;-70
2020/12/22 09:21:59;;;;;;;0.30;0.30;;;15.10;99.90;;;;;;10371954;28;20048;-70
2020/12/22 09:27:12;;;;;;;0.40;0.40;;;15.20;99.90;;;;;;10373148;28;20061;-70
2020/12/22 09:32:13;;;;;;;0.60;0.43;;;15.30;99.90;;;;;;10371331;28;20418;-70
2020/12/22 09:37:15;;;;;;;0.40;0.40;;;15.40;99.90;;;;;;10373264;28;20060;-71
2020/12/22 09:42:27;;;;;;;0.47;0.47;;;15.60;99.90;;;;;;10374138;28;20092;-70
2020/12/22 09:47:29;;;;;;;0.90;0.90;;;15.60;99.90;;;;;;10372224;28;20273;-70
2020/12/22 09:52:30;;;;;;;1.95;0.75;;;15.60;99.90;;;;;;10374022;28;20078;-70
2020/12/22 09:57:32;;;;;;;1.30;0.80;;;15.60;99.90;;;;;;10373747;28;20049;-70
2020/12/22 10:02:33;;;;;;;0.70;0.70;;;15.50;99.90;;;;;;10373272;28;20057;-71
2020/12/22 10:07:34;;;;;;;0.60;0.60;;;15.50;99.90;;;;;;10373150;28;20089;-70
2020/12/22 10:12:36;;;;;;;1.95;0.70;;;15.50;99.90;;;;;;10373170;28;20092;-70
2020/12/22 10:17:37;;;;;;;2.33;0.82;;;15.50;99.90;;;;;;10372333;28;20054;-70
2020/12/22 10:22:39;;;;;;;0.68;0.60;;;15.40;99.90;;;;;;10371714;28;20076;-69
2020/12/22 10:27:40;;;;;;;0.68;0.68;;;15.40;99.90;;;;;;10371763;28;20050;-69
2020/12/22 10:32:43;;;;;;;0.90;0.90;;;15.40;99.90;;;;;;10372006;28;20096;-70
2020/12/22 10:37:44;;;;;;;0.30;0.30;;;15.40;99.90;;;;;;10372668;28;20417;-69
2020/12/22 10:42:46;;;;;;;2.35;0.50;;;15.50;99.90;;;;;;10387046;28;20108;-69
2020/12/22 10:47:47;;;;;;;1.10;0.77;;;15.30;99.90;;;;;;10371540;28;20108;-69
2020/12/22 10:52:49;;;;;;;1.00;0.50;;;15.30;99.90;;;;;;10372897;28;20203;-69
2020/12/22 10:57:51;;;;;;;0.68;0.60;;;15.40;99.90;;;;;;10371862;28;20510;-70
2020/12/22 11:02:59;;;;;;;0.93;0.30;;;15.50;99.90;;;;;;10371647;28;20073;-70
2020/12/22 11:08:02;;;;;;;3.50;1.00;;;15.60;99.90;;;;;;10371829;28;20136;-70
2020/12/22 11:13:04;;;;;;;1.33;0.80;;;15.20;99.90;;;;;;10371234;28;20339;-69
2020/12/22 11:18:05;;;;;;;1.27;1.10;;;15.40;99.90;;;;;;10371013;28;20077;-69
2020/12/22 11:23:07;;;;;;;1.15;1.00;;;15.50;99.90;;;;;;10386989;28;20514;-69
2020/12/22 11:28:08;;;;;;;1.67;1.10;;;15.60;99.90;;;;;;10370875;28;20508;-69
2020/12/22 11:33:10;;;;;;;4.40;1.10;;;15.60;99.90;;;;;;10385582;28;20494;-69
2020/12/22 11:38:11;;;;;;;2.80;0.70;;;15.50;99.90;;;;;;10371294;28;20050;-69
2020/12/22 11:43:13;;;;;;;0.93;0.80;;;15.40;99.90;;;;;;10370635;28;20045;-69
2020/12/22 11:48:14;;;;;;;1.95;0.75;;;15.40;99.90;;;;;;10369852;28;20478;-70
2020/12/22 11:53:16;;;;;;;0.55;0.55;;;15.40;99.90;;;;;;10370846;28;20053;-69
2020/12/22 11:58:18;;;;;;;0.73;0.50;;;15.50;99.90;;;;;;10370152;28;20097;-70
2020/12/22 12:03:20;;;;;;;0.70;0.70;;;15.40;99.90;;;;;;10370142;28;20480;-70
2020/12/22 12:08:22;;;;;;;1.13;0.60;;;15.60;99.90;;;;;;10370670;28;20502;-70
2020/12/22 12:13:24;;;;;;;6.72;1.15;;;15.80;99.90;;;;;;10370263;28;20277;-69
2020/12/22 12:18:25;;;;;;;1.98;0.60;;;15.80;99.90;;;;;;10369266;28;20089;-70
2020/12/22 12:23:27;;;;;;;1.13;0.70;;;15.90;99.90;;;;;;10368120;28;20452;-69
2020/12/22 12:28:29;;;;;;;0.55;0.52;;;15.90;99.90;;;;;;10368396;28;20484;-69
2020/12/22 12:33:31;;;;;;;0.80;0.63;;;15.90;99.90;;;;;;10362601;28;20049;-69
2020/12/22 12:38:33;;;;;;;0.50;0.50;;;16.00;99.90;;;;;;10366773;28;20056;-69
2020/12/22 12:43:34;;;;;;;0.57;0.57;;;15.90;99.90;;;;;;10359759;28;20089;-69
2020/12/22 12:48:36;;;;;;;0.40;0.40;;;15.90;99.90;;;;;;10360988;28;20089;-69
2020/12/22 12:53:39;;;;;;;0.70;0.43;;;15.80;99.90;;;;;;10373320;28;20050;-71
2020/12/22 12:58:48;;;;;;;0.60;0.60;;;15.90;99.90;;;;;;10372763;28;20060;-69
2020/12/22 13:03:52;;;;;;;1.25;0.40;;;16.00;99.90;;;;;;10373875;28;20057;-69
2020/12/22 13:08:54;;;;;;;1.70;0.52;;;16.00;99.90;;;;;;10372829;28;20169;-69
2020/12/22 13:13:55;;;;;;;2.00;0.88;;;15.90;99.90;;;;;;10373085;28;20412;-69
2020/12/22 13:18:57;;;;;;;1.33;0.55;;;16.00;99.90;;;;;;10370831;28;20046;-69
2020/12/22 13:23:58;;;;;;;0.80;0.50;;;16.10;99.90;;;;;;10372207;28;20081;-69
2020/12/22 13:29:06;;;;;;;2.13;0.80;;;16.20;99.90;;;;;;10386284;28;20457;-69
2020/12/22 13:34:07;;;;;;;0.57;0.52;;;16.10;99.90;;;;;;10362337;28;20503;-69
2020/12/22 13:39:10;;;;;;;4.47;0.75;;;15.90;99.90;;;;;;10370084;28;20077;-69
2020/12/22 13:44:12;;;;;;;2.00;0.70;;;15.90;99.90;;;;;;10371804;28;20054;-69
2020/12/22 13:49:13;;;;;;;2.40;1.20;;;15.90;99.90;;;;;;10372102;28;20065;-69
2020/12/22 13:54:15;;;;;;;1.65;1.05;;;15.90;99.90;;;;;;10369689;28;20080;-69
2020/12/22 13:59:28;;;;;;;1.33;1.00;;;15.90;99.90;;;;;;10369198;28;20058;-69
2020/12/22 14:04:34;;;;;;;4.47;1.60;;;15.90;99.90;;;;;;10371658;28;20057;-69
2020/12/22 14:09:36;;;;;;;3.08;1.77;;;16.00;99.90;;;;;;10371561;28;20109;-69
2020/12/22 14:14:38;;;;;;;3.42;2.00;;;16.00;99.90;;;;;;10371357;28;20342;-69
2020/12/22 14:19:41;;;;;;;1.15;0.85;;;15.90;99.90;;;;;;10370909;28;20054;-69
2020/12/22 14:24:44;;;;;;;0.77;0.77;;;15.80;99.90;;;;;;10370952;28;20064;-69
2020/12/22 14:29:49;;;;;;;0.90;0.63;;;15.80;99.90;;;;;;10372171;28;20042;-69
2020/12/22 14:34:50;;;;;;;2.17;1.00;;;15.70;99.90;;;;;;10369072;28;20049;-69
2020/12/22 14:39:52;;;;;;;1.45;1.02;;;15.70;99.90;;;;;;10365139;28;20050;-68
2020/12/22 14:44:53;;;;;;;2.30;1.50;;;15.70;99.90;;;;;;10370155;28;20061;-69
2020/12/22 14:49:54;;;;;;;2.22;1.40;;;15.60;99.90;;;;;;10370257;28;20520;-69
2020/12/22 14:54:56;;;;;;;5.22;2.10;;;15.50;99.90;;;;;;10369804;28;20557;-69
2020/12/22 15:00:14;;;;;;;4.25;1.95;;;15.40;99.90;;;;;;10365492;28;20050;-69
2020/12/22 15:05:17;;;;;;;2.63;1.55;;;15.40;99.90;;;;;;10335730;28;20424;-68
2020/12/22 15:10:19;;;;;;;2.85;1.42;;;15.30;99.90;;;;;;10368165;28;20050;-68
2020/12/22 15:15:20;;;;;;;2.78;1.38;;;15.30;99.90;;;;;;10368979;28;20081;-69
2020/12/22 15:20:22;;;;;;;4.22;2.13;;;15.30;99.90;;;;;;10366950;28;20054;-68
2020/12/22 15:25:24;;;;;;;3.28;1.60;;;15.30;99.90;;;;;;10369047;28;20081;-68
2020/12/22 15:30:27;;;;;;;3.60;1.83;;;15.30;99.90;;;;;;10367755;28;20061;-68
2020/12/22 15:35:28;;;;;;;5.40;2.00;;;15.20;99.90;;;;;;10367431;28;20519;-68
2020/12/22 15:40:30;;;;;;;3.90;2.10;;;15.30;99.90;;;;;;10363876;28;20107;-69
2020/12/22 15:45:32;;;;;;;3.40;1.38;;;15.30;99.90;;;;;;10366840;28;20135;-68
2020/12/22 15:50:34;;;;;;;3.08;1.60;;;15.10;99.90;;;;;;10368110;28;20112;-68
2020/12/22 15:55:36;;;;;;;2.67;1.58;;;15.20;99.90;;;;;;10367887;28;20561;-68
2020/12/22 16:00:47;;;;;;;2.35;1.40;;;15.10;99.90;;;;;;10366785;28;20049;-68
2020/12/22 16:05:51;;;;;;;2.22;1.20;;;15.10;99.90;;;;;;10367613;28;20050;-68
2020/12/22 16:10:53;;;;;;;5.05;1.63;;;15.10;99.90;;;;;;10368478;28;20046;-65
2020/12/22 16:15:55;;;;;;;2.25;1.40;;;15.20;99.90;;;;;;10365982;28;20490;-65
2020/12/22 16:21:11;;;;;;;2.35;1.17;;;15.20;99.90;;;;;;10370258;28;20073;-65
2020/12/22 16:26:14;;;;;;;3.13;1.45;;;15.20;99.90;;;;;;10375110;28;20134;-65
2020/12/22 16:31:16;;;;;;;5.70;3.33;;;15.00;99.90;;;;;;10373918;28;20433;-65
2020/12/22 16:36:20;;;;;;;1.70;1.30;;;15.00;99.90;;;;;;10390521;28;20042;-65
2020/12/22 16:41:22;;;;;;;2.40;1.20;;;15.10;99.90;;;;;;10373126;28;20490;-65
2020/12/22 16:46:26;;;;;;;0.75;0.75;;;15.00;99.90;;;;;;10374810;28;20133;-65
2020/12/22 16:51:28;;;;;;;1.25;0.90;;;14.90;99.90;;;;;;10371284;28;20448;-65
2020/12/22 16:56:29;;;;;;;5.43;2.83;;;14.90;99.90;;;;;;10371239;28;20096;-65
2020/12/22 17:01:31;;;;;;;2.83;1.50;;;14.90;99.90;;;;;;10365279;28;20084;-65
2020/12/22 17:06:37;;;;;;;1.17;1.02;;;14.90;99.90;;;;;;10373660;28;20049;-65
2020/12/22 17:11:39;;;;;;;2.90;0.80;;;15.00;99.90;;;;;;10363864;28;20058;-64
2020/12/22 17:16:41;;;;;;;4.40;1.50;;;14.90;99.90;;;;;;10367605;28;20120;-65
2020/12/22 17:21:44;;;;;;;1.45;0.93;;;15.00;99.90;;;;;;10371048;28;20406;-65
2020/12/22 17:26:48;;;;;;;4.15;1.80;;;14.90;99.90;;;;;;10386648;28;20178;-65
2020/12/22 17:31:49;;;;;;;2.30;1.40;;;14.90;99.90;;;;;;10368275;28;20077;-65
2020/12/22 17:36:51;;;;;;;7.80;2.05;;;14.80;99.90;;;;;;10372483;28;20049;-65
2020/12/22 17:41:54;;;;;;;5.80;2.22;;;14.80;99.90;;;;;;10355071;28;20047;-65
2020/12/22 17:46:56;;;;;;;4.88;2.60;;;14.60;99.90;;;;;;10370650;28;20041;-65
2020/12/22 17:51:59;;;;;;;7.43;3.10;;;14.70;99.90;;;;;;10369544;28;20076;-65
2020/12/22 17:57:00;;;;;;;7.25;4.18;;;14.70;99.90;;;;;;10371724;28;20050;-65
2020/12/22 18:02:02;;;;;;;14.30;9.25;;;14.80;99.90;;;;;;10369704;28;20129;-65
2020/12/22 18:07:03;;;;;;;3.72;2.80;;;14.70;99.90;;;;;;10370612;28;20104;-65
2020/12/22 18:12:05;;;;;;;10.40;6.13;;;14.80;99.90;;;;;;10370145;28;20458;-65
2020/12/22 18:17:06;;;;;;;10.50;4.55;;;14.70;99.90;;;;;;10385248;28;20581;-65
2020/12/22 18:22:08;;;;;;;6.70;2.80;;;14.50;99.90;;;;;;10370934;28;20045;-65
2020/12/22 18:27:10;;;;;;;4.00;2.95;;;14.50;99.90;;;;;;10370210;28;20413;-65
2020/12/22 18:32:12;;;;;;;6.50;3.17;;;14.70;99.90;;;;;;10362578;28;20054;-65
2020/12/22 18:37:14;;;;;;;5.47;2.80;;;14.70;99.90;;;;;;10337911;28;20168;-65
2020/12/22 18:42:16;;;;;;;45.83;20.73;;;14.60;99.90;;;;;;10374950;28;20486;-65
2020/12/22 18:47:18;;;;;;;5.53;2.80;;;14.50;99.90;;;;;;10365328;28;20141;-65
2020/12/22 18:52:20;;;;;;;4.30;2.65;;;14.30;99.90;;;;;;10384734;28;20046;-65
2020/12/22 18:57:21;;;;;;;4.15;2.00;;;14.20;99.90;;;;;;10368666;28;20084;-65
2020/12/22 19:02:34;;;;;;;5.68;1.63;;;14.20;99.90;;;;;;10368834;28;20564;-65
2020/12/22 19:07:36;;;;;;;2.45;1.15;;;14.20;99.90;;;;;;10369549;28;20061;-65
2020/12/22 19:12:40;;;;;;;3.05;1.42;;;14.20;99.90;;;;;;10366815;28;20042;-65
2020/12/22 19:17:43;;;;;;;2.83;1.48;;;14.10;99.90;;;;;;10368875;28;20090;-65
2020/12/22 19:22:44;;;;;;;3.75;1.50;;;14.10;99.90;;;;;;10368165;28;20077;-65
2020/12/22 19:27:47;;;;;;;5.78;1.50;;;14.10;99.90;;;;;;10367279;28;20050;-65
2020/12/22 19:32:50;;;;;;;2.78;1.30;;;14.10;99.90;;;;;;10368163;28;20045;-65
2020/12/22 19:37:54;;;;;;;21.75;12.40;;;14.00;99.90;;;;;;10382697;28;20053;-65
2020/12/22 19:42:55;;;;;;;9.27;6.70;;;14.10;99.90;;;;;;10360776;28;20489;-65
2020/12/22 19:47:56;;;;;;;5.22;2.10;;;14.10;99.90;;;;;;10338228;28;20147;-65
2020/12/22 19:52:58;;;;;;;3.90;1.02;;;14.10;99.90;;;;;;10350343;28;20444;-65
2020/12/22 19:57:59;;;;;;;2.10;1.20;;;14.10;99.90;;;;;;10384813;28;20082;-65
2020/12/22 20:03:09;;;;;;;4.32;1.17;;;14.00;99.90;;;;;;10372655;28;20124;-65
2020/12/22 20:08:10;;;;;;;1.65;1.00;;;14.10;99.90;;;;;;10376678;28;20533;-65
2020/12/22 20:13:11;;;;;;;3.38;1.10;;;14.10;99.90;;;;;;10373174;28;20502;-65
2020/12/22 20:18:13;;;;;;;3.55;1.30;;;14.20;99.90;;;;;;10375163;28;20599;-65
2020/12/22 20:23:14;;;;;;;1.42;0.93;;;14.30;99.90;;;;;;10376069;28;20112;-65
2020/12/22 20:28:16;;;;;;;3.80;1.58;;;14.30;99.90;;;;;;10374956;28;20100;-65
2020/12/22 20:33:30;;;;;;;2.88;1.13;;;14.30;99.90;;;;;;10373365;28;20056;-65
2020/12/22 20:38:31;;;;;;;1.95;1.30;;;14.20;99.90;;;;;;10374683;28;20124;-65
2020/12/22 20:43:33;;;;;;;2.65;1.50;;;14.30;99.90;;;;;;10373775;28;20049;-65
2020/12/22 20:48:35;;;;;;;3.67;1.92;;;14.30;99.90;;;;;;10373770;28;20096;-65
2020/12/22 20:53:37;;;;;;;2.45;1.30;;;14.30;99.90;;;;;;10358993;28;20042;-65
2020/12/22 20:58:39;;;;;;;2.92;1.60;;;14.30;99.90;;;;;;10353730;28;20042;-65
2020/12/22 21:03:46;;;;;;;4.05;1.67;;;14.20;99.90;;;;;;10351683;28;20060;-65
2020/12/22 21:08:48;;;;;;;4.68;1.75;;;14.20;99.90;;;;;;10375784;28;20053;-65
2020/12/22 21:13:49;;;;;;;4.30;2.50;;;14.30;99.90;;;;;;10345522;28;20050;-64
2020/12/22 21:18:51;;;;;;;4.18;1.77;;;14.40;99.90;;;;;;10336342;28;20054;-65
2020/12/22 21:23:52;;;;;;;5.43;2.97;;;14.30;99.90;;;;;;10362374;28;20092;-65
2020/12/22 21:28:54;;;;;;;3.58;1.85;;;14.30;99.90;;;;;;10346082;28;20589;-65
2020/12/22 21:34:07;;;;;;;4.85;2.38;;;14.20;99.90;;;;;;10337142;28;20050;-65
2020/12/22 21:39:09;;;;;;;4.60;2.25;;;14.10;99.90;;;;;;10365575;28;20054;-65
2020/12/22 21:44:11;;;;;;;5.22;1.98;;;13.90;99.90;;;;;;10373404;28;20108;-65
2020/12/22 21:49:16;;;;;;;741.95;31.65;;;14.10;99.90;;;;;;10372819;28;20058;-65
2020/12/22 21:54:19;;;;;;;164.57;10.82;;;14.10;99.90;;;;;;10373232;28;20510;-65
2020/12/22 21:59:21;;;;;;;8.35;6.35;;;14.10;99.90;;;;;;10372820;28;20140;-65
2020/12/22 22:04:27;;;;;;;8.45;5.60;;;14.10;99.90;;;;;;10372627;28;20101;-65
2020/12/22 22:09:28;;;;;;;6.72;3.50;;;14.10;99.90;;;;;;10373030;28;20486;-65
2020/12/22 22:14:30;;;;;;;6.82;4.60;;;14.10;99.90;;;;;;10372151;28;20099;-65
2020/12/22 22:19:32;;;;;;;8.10;3.20;;;14.20;99.90;;;;;;10372329;28;20121;-64
2020/12/22 22:24:34;;;;;;;4.82;3.08;;;14.10;99.90;;;;;;10372632;28;20482;-65
2020/12/22 22:29:35;;;;;;;626.65;20.13;;;14.10;99.90;;;;;;10365726;28;20050;-64
2020/12/22 22:34:43;;;;;;;561.70;19.45;;;14.10;99.90;;;;;;10371371;28;20053;-65
2020/12/22 22:39:45;;;;;;;340.15;11.13;;;14.00;99.90;;;;;;10370977;28;20506;-64
2020/12/22 22:44:48;;;;;;;8.70;5.70;;;14.00;99.90;;;;;;10370971;28;20045;-64
2020/12/22 22:49:50;;;;;;;10.52;6.93;;;14.10;99.90;;;;;;10370181;28;20077;-65
2020/12/22 22:54:51;;;;;;;19.00;7.57;;;14.00;99.90;;;;;;10370757;28;20048;-64
2020/12/22 22:59:53;;;;;;;559.28;16.75;;;13.90;99.90;;;;;;10370109;28;20045;-65
2020/12/22 23:05:02;;;;;;;49.75;6.25;;;13.60;99.90;;;;;;10351297;28;20050;-65
2020/12/22 23:10:04;;;;;;;9.23;5.57;;;13.70;99.90;;;;;;10370608;28;20081;-64
2020/12/22 23:15:07;;;;;;;22.98;8.93;;;13.80;99.90;;;;;;10368908;28;20042;-65
2020/12/22 23:20:09;;;;;;;16.83;7.07;;;13.90;99.90;;;;;;10355104;28;20493;-65
2020/12/22 23:25:11;;;;;;;258.77;14.32;;;13.90;99.90;;;;;;10368846;28;20080;-65
2020/12/22 23:30:13;;;;;;;53.10;8.45;;;13.90;99.90;;;;;;10382952;28;20084;-65
2020/12/22 23:35:32;;;;;;;28.70;6.82;;;13.70;99.90;;;;;;10335868;28;20440;-65
2020/12/22 23:40:35;;;;;;;137.23;9.27;;;13.80;99.90;;;;;;10347142;28;20145;-65
2020/12/22 23:45:36;;;;;;;4.82;3.40;;;13.90;99.90;;;;;;10336352;28;20082;-65
2020/12/22 23:50:37;;;;;;;8.55;3.50;;;13.90;99.90;;;;;;10360224;28;20046;-65
2020/12/22 23:55:39;;;;;;;15.73;3.88;;;13.90;99.90;;;;;;10368609;28;20124;-65
